createdAt,value
2022-12-27T00:09:01.937Z,101341.47
2022-12-27T00:19:03.200Z,101348.03
2022-12-27T00:29:04.487Z,101349.00
2022-12-27T00:39:05.754Z,101372.13
2022-12-27T00:49:07.059Z,101379.19
2022-12-27T00:59:08.368Z,101384.28
2022-12-27T01:09:09.621Z,101392.75
2022-12-27T01:19:10.957Z,101397.72
2022-12-27T01:29:12.260Z,101411.50
2022-12-27T01:39:13.538Z,101419.47
2022-12-27T01:49:14.789Z,101436.03
2022-12-27T01:59:16.085Z,101428.97
2022-12-27T02:09:17.342Z,101430.81
2022-12-27T02:19:18.620Z,101429.91
2022-12-27T02:29:20.015Z,101434.09
2022-12-27T02:39:21.277Z,101434.00
2022-12-27T02:49:41.399Z,101435.59
2022-12-27T03:00:02.649Z,101426.38
2022-12-27T03:10:22.843Z,101435.00
2022-12-27T03:20:42.738Z,101444.47
2022-12-27T03:31:13.599Z,101445.34
2022-12-27T03:41:33.636Z,101443.38
2022-12-27T03:51:35.013Z,101445.34
2022-12-27T04:01:36.419Z,101448.66
2022-12-27T04:11:56.600Z,101451.28
2022-12-27T04:22:16.310Z,101446.72
2022-12-27T04:32:36.662Z,101456.19
2022-12-27T04:43:00.978Z,101461.81
2022-12-27T04:53:20.768Z,101456.16
2022-12-27T05:03:22.090Z,101451.13
2022-12-27T05:13:42.182Z,101450.72
2022-12-27T05:24:05.604Z,101468.63
2022-12-27T05:34:07.132Z,101474.34
2022-12-27T05:44:08.374Z,101468.59
2022-12-27T05:54:09.893Z,101483.50
2022-12-27T06:04:11.236Z,101489.31
2022-12-27T06:14:12.530Z,101505.44
2022-12-27T06:24:13.813Z,101497.69
2022-12-27T06:34:15.102Z,101509.53
2022-12-27T06:44:16.387Z,101507.56
2022-12-27T06:54:17.683Z,101540.66
2022-12-27T07:04:18.963Z,101565.38
2022-12-27T07:14:20.233Z,101570.09
2022-12-27T07:24:21.518Z,101582.88
2022-12-27T07:34:22.851Z,101576.09
2022-12-27T07:44:24.107Z,101584.13
2022-12-27T07:54:25.447Z,101582.16
2022-12-27T08:04:26.739Z,101587.03
2022-12-27T08:14:28.029Z,101601.63
2022-12-27T08:24:29.309Z,101607.38
2022-12-27T08:34:30.598Z,101608.94
2022-12-27T08:44:31.926Z,101618.25
2022-12-27T08:54:33.169Z,101631.75
2022-12-27T09:04:34.481Z,101626.94
2022-12-27T09:14:35.730Z,101629.22
2022-12-27T09:24:37.004Z,101630.81
2022-12-27T09:34:38.402Z,101643.13
2022-12-27T09:44:39.740Z,101644.28
2022-12-27T09:54:41.007Z,101634.44
2022-12-27T10:05:17.713Z,101637.16
2022-12-27T10:15:03.527Z,101619.81
2022-12-27T10:25:04.789Z,101621.16
2022-12-27T10:35:06.148Z,101607.94
2022-12-27T10:45:07.409Z,101599.81
2022-12-27T10:55:08.655Z,101591.91
2022-12-27T11:05:09.989Z,101597.69
2022-12-27T11:15:11.301Z,101603.84
2022-12-27T11:25:12.561Z,101598.22
2022-12-27T11:35:14.994Z,101584.06
2022-12-27T11:45:16.330Z,101588.69
2022-12-27T11:55:17.606Z,101584.13
2022-12-27T12:05:18.908Z,101571.34
2022-12-27T12:15:20.198Z,101566.59
2022-12-27T12:25:21.482Z,101568.72
2022-12-27T12:35:22.811Z,101550.50
2022-12-27T12:45:24.101Z,101557.78
2022-12-27T12:55:25.352Z,101556.00
2022-12-27T13:05:26.635Z,101547.09
2022-12-27T13:15:27.956Z,101542.94
2022-12-27T13:25:29.377Z,101531.50
2022-12-27T13:35:30.704Z,101526.38
2022-12-27T13:45:32.004Z,101527.16
2022-12-27T13:55:33.287Z,101520.00
2022-12-27T14:05:34.568Z,101520.66
2022-12-27T14:15:35.877Z,101523.91
2022-12-27T14:25:37.245Z,101520.88
2022-12-27T14:35:38.574Z,101508.59
2022-12-27T14:45:39.840Z,101503.03
2022-12-27T14:55:41.139Z,101498.38
2022-12-27T15:05:42.498Z,101504.97
2022-12-27T15:15:43.997Z,101494.25
2022-12-27T15:25:45.296Z,101488.72
2022-12-27T15:35:46.682Z,101506.41
2022-12-27T15:45:47.950Z,101509.44
2022-12-27T15:55:49.215Z,101506.75
2022-12-27T16:05:52.379Z,101501.81
2022-12-27T16:15:53.824Z,101494.44
2022-12-27T16:25:55.126Z,101502.00
2022-12-27T16:35:56.440Z,101497.16
2022-12-27T16:45:58.849Z,101472.78
2022-12-27T16:56:00.121Z,101460.56
2022-12-27T17:16:22.795Z,101467.50
2022-12-27T17:26:24.103Z,101461.69
2022-12-27T17:36:25.402Z,101462.75
2022-12-27T17:46:26.656Z,101454.44
2022-12-27T17:56:46.897Z,101447.94
2022-12-27T18:06:48.152Z,101436.72
2022-12-27T18:16:49.457Z,101422.25
2022-12-27T18:26:50.736Z,101410.72
2022-12-27T18:36:52.035Z,101417.00
2022-12-27T18:46:53.288Z,101405.78
2022-12-27T18:56:54.533Z,101390.53
2022-12-27T19:06:55.789Z,101378.00
2022-12-27T19:16:57.149Z,101378.22
2022-12-27T19:27:00.595Z,101364.16
2022-12-27T19:37:02.096Z,101354.22
2022-12-27T19:47:03.394Z,101357.59
2022-12-27T19:57:04.683Z,101346.38
2022-12-27T20:07:06.056Z,101331.97
2022-12-27T20:17:07.323Z,101318.75
2022-12-27T20:27:08.573Z,101325.59
2022-12-27T20:37:10.797Z,101302.13
2022-12-27T20:47:12.145Z,101301.34
2022-12-27T20:57:13.403Z,101296.97
2022-12-27T21:07:14.640Z,101289.06
2022-12-27T21:17:16.751Z,101288.19
2022-12-27T21:27:18.013Z,101285.44
2022-12-27T21:37:19.278Z,101280.13
2022-12-27T21:47:20.700Z,101278.41
2022-12-27T21:57:21.967Z,101239.63
2022-12-27T22:07:23.277Z,101240.75
2022-12-27T22:17:24.556Z,101231.94
2022-12-27T22:27:25.831Z,101228.13
2022-12-27T22:37:27.098Z,101237.25
2022-12-27T22:47:28.662Z,101228.81
2022-12-27T22:57:30.035Z,101220.09
2022-12-27T23:08:03.619Z,101212.06
2022-12-27T23:17:53.059Z,101199.22
2022-12-27T23:27:54.414Z,101183.63
2022-12-27T23:37:55.693Z,101175.00
2022-12-27T23:47:56.971Z,101157.75
2022-12-27T23:57:58.262Z,101161.56
